Alcoa, Tennessee
Current Conditions -  °F | °C
As of 12:53 PM on Friday 24 Oct 2014 (Local Time) from KTYS Reporting Station
Scattered Clouds Scattered Clouds  
Wind Chill: 61°   Ceiling: Unl
Heat Index: 61°   Visibility: 10mi
Dew Point: 44°   Wind: 6mph
Humidity: 54%   Direction: 70°ENE
Pressure: 30.08"   Gusts: NA
Location:  35.77°N, 83.98°W
Report Text: KTYS 241653Z 07005KT 10SM SCT170 16/07 A3008 RMK AO2 SLP185 T01610067
Loading
Personal Weather Stations






























Interactive Weather Map
Tropical Storm Tracking
New forecast layout! Learn more

10-Day Weather Forecast

Advertisements
Track Severe Weather on mobile